Airfield :
LOGIN :

Register | Disclaimer

   EN    FR    IT 

 










Legend :    VFR   Marginal VFR   IFR   Intensive IFR   Very Intensive IFR
Visi :
Ceiling :
>= 8 km
>= 3000ft
5 to 8 km
1000 to 3000 ft
1500m to 5 km
500 to 1000 ft
800 to 1500m
200 to 500 ft
< 800m
< 200 ft
Symbols :   Thunderstorms  Fog  Heavy snow  Heavy precipitations  Wind > 20 kt
SIGMETs :     Misc.  Thunderstorms  Icing  Turbulence  Mountain Waves  Volcanic Ashes






- Airport Elevation : 375 ft
- IATA code : MST


EHBK - Maastricht Aachen

CURRENT METAR :
  • 220125Z AUTO 21016KT 9999 +DZRA FEW008 SCT009 BKN011 09/08 Q0999

EXPIRED METARs :
  • 220055Z AUTO 21015KT 9999 -RA FEW009 BKN011 OVC013 09/08 Q1000
  • 220025Z AUTO 21016KT 9999 -RA FEW010/// BKN012/// OVC015/// 09/08 Q1001 REDZRA
  • 212355Z AUTO 21016KT 9999 -RA FEW010 BKN012 OVC015 09/08 Q1001
  • 212325Z AUTO 22017KT 190V250 9999 -RA FEW012/// BKN014/// BKN017/// 09/08 Q1001 REDZRA
  • 212255Z AUTO 21018KT 9999 -RA FEW012/// BKN016/// OVC020/// 09/07 Q1001 REDZRA
  • 212225Z AUTO 21018KT 9999 -RA FEW009/// SCT011/// BKN013/// 09/07 Q1002
  • 212155Z AUTO 21017KT 9999 -RA FEW008/// BKN017/// OVC021/// 08/07 Q1002 NOSIG
  • 212125Z AUTO 21019KT 9999 -RA FEW010/// SCT018/// BKN022/// 08/07 Q1002 NOSIG
  • 212055Z AUTO 20019G29KT 180V240 9999 -RA FEW016/// SCT020/// BKN024/// 08/07 Q1003 NOSIG
  • 212025Z AUTO 20019KT 9999 -RA FEW008 SCT017 BKN027 08/07 Q1003 NOSIG

TAF TAF EHBK
Valid from the 22 at 00:00 until the 23 at 06:00 UTC


212319Z 2200/2306 19015G25KT 8000 RA BKN012
BECMG 2201/2204 22012KT NSW
BECMG 2209/2211 19015G25KT RA
BECMG 2219/2222 24025G36KT 4000 RA SHRA SCT018CB OVC030
PROB40
TEMPO 2219/2222 24038G52KT
BECMG 2300/2303 21015KT 9999 NSW SCT030



MET'MAP, your aeronautical weather chart ! - Copyright ORBIFLY December 2007 - Disclaimer

ORBIFLY MET'MAP TEAM :

Programming & Development : Alexandra Zaïnal
Original concept : Baudouin d'Aumeries
Technical & hardware support : Manuel Goepfert
Assistance : Marc-Olivier Méhu




SOURCES & CREDITS :

   NOAA